Time;durP1;ratioP1;P1;durP2;ratioP2;P2;SDS_P1;SDS_P2;PMS_P1;PMS_P2;Temp;Humidity;BMP_temperature;BMP_pressure;BME280_temperature;BME280_humidity;BME280_pressure;Samples;Min_cycle;Max_cycle;Signal;HPM_P1;HPM_P2
2020/12/25 00:00:23;;;;;;;1.00;0.70;;;;;;;3.48;100.00;95412.94;1020472;29;20031;-74
2020/12/25 00:00:55;;;;;;;0.85;0.60;;;;;;;3.54;100.00;95422.03;1020325;29;20059;-73
2020/12/25 00:01:26;;;;;;;1.30;0.80;;;;;;;3.54;100.00;95420.25;1016501;29;20126;-74
2020/12/25 00:01:56;;;;;;;1.40;0.90;;;;;;;3.55;100.00;95423.69;1020198;29;20516;-73
2020/12/25 00:02:28;;;;;;;1.38;0.80;;;;;;;3.46;100.00;95404.38;1024333;29;20030;-74
2020/12/25 00:03:00;;;;;;;1.00;0.73;;;;;;;3.53;100.00;95418.56;1020286;29;20082;-74
2020/12/25 00:03:31;;;;;;;3.22;0.90;;;;;;;3.53;100.00;95418.56;1024240;29;20082;-74
2020/12/25 00:04:01;;;;;;;1.23;0.80;;;;;;;3.53;100.00;95413.31;1028273;28;20031;-73
2020/12/25 00:04:32;;;;;;;1.33;0.90;;;;;;;3.52;100.00;95416.94;1024457;29;20613;-74
2020/12/25 00:05:04;;;;;;;1.58;1.05;;;;;;;3.52;100.00;95419.56;1024378;29;20020;-73
2020/12/25 00:05:35;;;;;;;2.25;0.80;;;;;;;3.53;100.00;95426.44;1020361;29;20164;-74
2020/12/25 00:06:05;;;;;;;1.25;0.93;;;;;;;3.48;100.00;95418.19;1020236;29;20027;-73
2020/12/25 00:06:36;;;;;;;1.23;0.90;;;;;;;3.51;100.00;95419.69;1024358;29;20015;-74
2020/12/25 00:07:07;;;;;;;0.75;0.65;;;;;;;3.45;100.00;95408.00;1020445;29;20051;-74
2020/12/25 00:07:37;;;;;;;1.45;0.98;;;;;;;3.44;100.00;95408.94;1024243;29;20008;-74
2020/12/25 00:08:08;;;;;;;1.23;0.80;;;;;;;3.50;100.00;95424.13;1024299;29;20512;-74
2020/12/25 00:08:39;;;;;;;1.10;0.90;;;;;;;3.47;100.00;95415.72;1020507;29;20022;-74
2020/12/25 00:09:10;;;;;;;1.38;0.85;;;;;;;3.51;100.00;95422.31;1020566;29;20033;-74
2020/12/25 00:09:40;;;;;;;1.02;0.75;;;;;;;3.51;100.00;95428.41;1024236;28;20085;-74
2020/12/25 00:10:11;;;;;;;2.08;0.77;;;;;;;3.51;100.00;95412.66;1024145;29;20043;-73
2020/12/25 00:10:42;;;;;;;1.10;0.80;;;;;;;3.46;100.00;95414.88;1028251;28;20015;-73
2020/12/25 00:11:12;;;;;;;1.27;0.85;;;;;;;3.48;100.00;95428.69;1024440;29;20021;-73
2020/12/25 00:11:43;;;;;;;0.82;0.73;;;;;;;3.48;100.00;95418.19;1028448;28;20074;-74
2020/12/25 00:12:14;;;;;;;1.40;0.90;;;;;;;3.45;100.00;95417.66;1028215;28;20030;-73
2020/12/25 00:12:45;;;;;;;1.25;0.80;;;;;;;3.49;100.00;95419.03;1020346;29;20024;-73
2020/12/25 00:13:17;;;;;;;1.00;0.80;;;;;;;3.49;100.00;95425.09;1020458;29;20019;-74
2020/12/25 00:13:48;;;;;;;1.13;0.80;;;;;;;3.50;100.00;95425.91;1020367;29;20012;-74
2020/12/25 00:14:19;;;;;;;1.42;0.80;;;;;;;3.48;100.00;95428.69;1032160;28;20018;-73
2020/12/25 00:14:49;;;;;;;2.08;1.05;;;;;;;3.49;100.00;95425.09;1024340;29;20020;-74
2020/12/25 00:15:20;;;;;;;1.70;1.10;;;;;;;3.48;100.00;95426.06;1024386;29;20031;-74
2020/12/25 00:15:51;;;;;;;2.13;0.80;;;;;;;3.45;100.00;95429.00;1024366;29;20054;-74
2020/12/25 00:16:25;;;;;;;1.25;0.80;;;;;;;3.38;100.00;95420.88;1024181;29;20019;-73
2020/12/25 00:16:58;;;;;;;1.40;1.02;;;;;;;3.46;100.00;95421.94;1024299;28;20007;-72
2020/12/25 00:17:29;;;;;;;1.25;0.85;;;;;;;3.43;100.00;95423.06;1032371;28;20029;-74
2020/12/25 00:17:59;;;;;;;1.38;0.90;;;;;;;3.43;100.00;95420.44;1024352;29;20019;-74
2020/12/25 00:18:30;;;;;;;1.85;1.42;;;;;;;3.44;100.00;95421.25;1032226;28;20431;-73
2020/12/25 00:19:01;;;;;;;1.85;0.95;;;;;;;3.45;100.00;95422.91;1024371;28;20027;-74
2020/12/25 00:19:32;;;;;;;1.45;1.00;;;;;;;3.40;100.00;95421.53;1020436;29;20102;-74
2020/12/25 00:20:05;;;;;;;1.60;1.00;;;;;;;3.44;100.00;95418.63;1024391;29;20428;-74
2020/12/25 00:20:35;;;;;;;1.55;0.95;;;;;;;3.43;100.00;95430.09;1020188;29;20031;-74
2020/12/25 00:21:06;;;;;;;3.40;1.25;;;;;;;3.42;100.00;95425.84;1024343;28;20030;-74
2020/12/25 00:21:37;;;;;;;1.73;1.10;;;;;;;3.38;100.00;95423.50;1020304;29;20560;-74
2020/12/25 00:22:08;;;;;;;2.70;1.27;;;;;;;3.45;100.00;95425.53;1020350;29;20026;-74
2020/12/25 00:22:39;;;;;;;2.38;1.20;;;;;;;3.37;100.00;95410.50;1020560;29;20472;-73
2020/12/25 00:23:10;;;;;;;1.42;1.10;;;;;;;3.39;100.00;95419.06;1020541;29;20034;-74
2020/12/25 00:23:40;;;;;;;1.88;1.10;;;;;;;3.43;100.00;95424.84;1024275;29;20054;-73
2020/12/25 00:24:11;;;;;;;2.65;1.20;;;;;;;3.41;100.00;95427.59;1020361;28;20477;-74
2020/12/25 00:24:42;;;;;;;1.92;1.17;;;;;;;3.39;100.00;95422.50;1024143;29;20114;-74
2020/12/25 00:25:13;;;;;;;1.75;1.15;;;;;;;3.44;100.00;95422.06;1020376;29;20020;-74
2020/12/25 00:25:43;;;;;;;2.50;1.20;;;;;;;3.36;100.00;95408.84;1020429;29;20042;-74
2020/12/25 00:26:31;;;;;;;1.70;1.25;;;;;;;3.44;100.00;95424.69;1024454;29;20561;-74
2020/12/25 00:27:02;;;;;;;1.27;1.00;;;;;;;3.40;100.00;95425.97;1024290;29;20082;-74
2020/12/25 00:27:33;;;;;;;2.30;1.30;;;;;;;3.37;100.00;95421.00;1020380;29;20162;-74
2020/12/25 00:28:04;;;;;;;1.67;1.00;;;;;;;3.43;100.00;95420.44;1020372;29;20020;-74
2020/12/25 00:28:35;;;;;;;2.20;1.20;;;;;;;3.42;100.00;95420.59;1020214;29;20023;-74
2020/12/25 00:29:05;;;;;;;1.50;1.13;;;;;;;3.37;100.00;95413.13;1024230;29;20031;-74
2020/12/25 00:29:36;;;;;;;1.88;1.30;;;;;;;3.46;100.00;95419.31;1028207;28;20120;-74
2020/12/25 00:30:07;;;;;;;1.55;0.90;;;;;;;3.44;100.00;95414.19;1024257;29;20027;-74
2020/12/25 00:30:41;;;;;;;1.77;1.08;;;;;;;3.35;100.00;95412.47;1020226;29;20030;-74
2020/12/25 00:31:12;;;;;;;1.60;0.80;;;;;;;3.44;100.00;95418.63;1020297;29;20488;-74
2020/12/25 00:31:42;;;;;;;1.75;1.08;;;;;;;3.44;100.00;95416.81;1024211;29;20051;-74
2020/12/25 00:32:13;;;;;;;1.80;1.10;;;;;;;3.39;100.00;95409.38;1024215;29;20027;-73
2020/12/25 00:32:44;;;;;;;1.70;1.13;;;;;;;3.46;100.00;95419.31;1024003;29;20047;-73
2020/12/25 00:33:15;;;;;;;2.65;1.52;;;;;;;3.43;100.00;95415.19;1024128;29;20027;-74
2020/12/25 00:33:46;;;;;;;2.00;1.10;;;;;;;3.44;100.00;95411.56;1028303;28;20029;-74
2020/12/25 00:34:17;;;;;;;1.95;1.20;;;;;;;3.43;100.00;95415.19;1028287;28;20105;-74
2020/12/25 00:34:47;;;;;;;1.73;1.10;;;;;;;3.41;100.00;95414.47;1028086;28;20022;-73
2020/12/25 00:35:18;;;;;;;2.30;1.40;;;;;;;3.45;100.00;95420.28;1020240;29;20036;-73
2020/12/25 00:35:49;;;;;;;2.05;1.10;;;;;;;3.44;100.00;95416.00;1024209;29;20031;-73
2020/12/25 00:36:29;;;;;;;1.33;0.85;;;;;;;3.42;100.00;95417.97;1024389;29;20468;-75
2020/12/25 00:37:00;;;;;;;1.85;1.10;;;;;;;3.44;100.00;95411.56;1024193;29;20042;-74
2020/12/25 00:37:31;;;;;;;1.48;1.00;;;;;;;3.45;100.00;95421.13;1024236;29;20018;-74
2020/12/25 00:38:01;;;;;;;1.50;1.00;;;;;;;3.42;100.00;95418.78;1020247;29;20114;-74
2020/12/25 00:38:32;;;;;;;1.85;1.00;;;;;;;3.44;100.00;95416.81;1024180;28;20019;-73
2020/12/25 00:39:06;;;;;;;1.55;1.00;;;;;;;3.43;100.00;95412.56;1024084;29;20136;-73
2020/12/25 00:39:39;;;;;;;1.60;0.90;;;;;;;3.40;100.00;95420.72;1024161;29;20077;-73
2020/12/25 00:40:10;;;;;;;1.60;0.98;;;;;;;3.42;100.00;95416.16;1024249;29;20027;-73
2020/12/25 00:40:42;;;;;;;2.45;1.20;;;;;;;3.38;100.00;95418.25;1020332;28;20408;-74
2020/12/25 00:41:13;;;;;;;2.05;1.10;;;;;;;3.34;100.00;95408.97;1028061;28;20033;-73
2020/12/25 00:41:45;;;;;;;1.63;1.00;;;;;;;3.40;100.00;95421.53;1024188;28;20194;-73
2020/12/25 00:42:15;;;;;;;1.70;0.90;;;;;;;3.39;100.00;95413.81;1028178;28;20447;-74
2020/12/25 00:42:47;;;;;;;1.92;1.10;;;;;;;3.39;100.00;95424.31;1028224;28;20030;-74
2020/12/25 00:43:17;;;;;;;2.67;0.90;;;;;;;3.38;100.00;95422.66;1020214;29;20092;-73
2020/12/25 00:43:48;;;;;;;1.52;1.00;;;;;;;3.38;100.00;95422.66;1024224;29;20039;-73
2020/12/25 00:44:19;;;;;;;1.10;0.75;;;;;;;3.35;100.00;95421.16;1020365;29;20475;-74
2020/12/25 00:44:50;;;;;;;2.92;1.00;;;;;;;3.35;100.00;95430.81;1032304;28;20022;-74
2020/12/25 00:45:20;;;;;;;1.30;0.80;;;;;;;3.28;100.00;95416.63;1027991;28;20023;-73
2020/12/25 00:45:51;;;;;;;1.95;0.90;;;;;;;3.32;100.00;95415.38;1024269;29;20104;-73
2020/12/25 00:46:22;;;;;;;2.17;0.98;;;;;;;3.25;100.00;95406.41;1028181;28;20022;-73
2020/12/25 00:46:53;;;;;;;1.48;1.00;;;;;;;3.34;100.00;95427.34;1020273;29;20467;-74
2020/12/25 00:47:24;;;;;;;1.48;0.90;;;;;;;3.30;100.00;95417.31;1023753;28;20023;-72
2020/12/25 00:47:55;;;;;;;2.58;1.00;;;;;;;3.33;100.00;95435.41;1023706;29;20019;-74
2020/12/25 00:48:27;;;;;;;0.90;0.70;;;;;;;3.28;100.00;95427.13;1020503;29;20356;-74
2020/12/25 00:48:58;;;;;;;1.27;0.82;;;;;;;3.31;100.00;95434.69;1020201;29;20024;-73
2020/12/25 00:49:28;;;;;;;1.25;0.90;;;;;;;3.32;100.00;95431.09;1024188;29;20381;-73
2020/12/25 00:49:59;;;;;;;1.60;1.05;;;;;;;3.29;100.00;95428.75;1020152;28;20050;-73
2020/12/25 00:50:30;;;;;;;2.13;1.10;;;;;;;3.32;100.00;95428.47;1024241;29;20023;-74
2020/12/25 00:51:00;;;;;;;2.78;1.10;;;;;;;3.30;100.00;95435.69;1024279;29;20024;-73
2020/12/25 00:51:31;;;;;;;1.35;0.80;;;;;;;3.33;100.00;95438.03;1024121;28;20027;-73
2020/12/25 00:52:02;;;;;;;1.55;1.10;;;;;;;3.31;100.00;95434.69;1020218;29;20019;-74
2020/12/25 00:52:33;;;;;;;1.63;1.00;;;;;;;3.32;100.00;95434.56;1020193;29;20059;-73
2020/12/25 00:53:03;;;;;;;0.98;0.80;;;;;;;3.33;100.00;95435.41;1024227;29;20026;-74
2020/12/25 00:53:34;;;;;;;1.45;1.00;;;;;;;3.30;100.00;95439.13;1024183;28;20143;-73
2020/12/25 00:54:05;;;;;;;1.58;1.10;;;;;;;3.31;100.00;95437.31;1020211;29;20024;-74
2020/12/25 00:54:36;;;;;;;2.28;0.80;;;;;;;3.30;100.00;95440.94;1028262;28;20079;-74
2020/12/25 00:55:06;;;;;;;1.10;0.85;;;;;;;3.25;100.00;95432.66;1016384;29;20032;-72
2020/12/25 00:55:37;;;;;;;1.65;1.10;;;;;;;3.28;100.00;95437.63;1020261;29;20067;-73
2020/12/25 00:56:08;;;;;;;1.58;1.08;;;;;;;3.27;100.00;95439.41;1020130;29;20043;-73
2020/12/25 00:56:39;;;;;;;2.47;1.10;;;;;;;3.24;100.00;95433.63;1016367;29;20048;-73
2020/12/25 00:57:10;;;;;;;1.58;0.82;;;;;;;3.29;100.00;95441.88;1028290;28;20364;-74
2020/12/25 00:57:40;;;;;;;4.88;1.00;;;;;;;3.28;100.00;95440.25;1020275;29;20526;-73
2020/12/25 00:58:11;;;;;;;1.55;0.80;;;;;;;3.27;100.00;95435.97;1024018;29;20154;-73
2020/12/25 00:58:42;;;;;;;1.30;1.02;;;;;;;3.27;100.00;95439.41;1028160;28;20065;-74
2020/12/25 00:59:13;;;;;;;1.20;0.95;;;;;;;3.28;100.00;95442.88;1028229;28;20461;-74
2020/12/25 00:59:43;;;;;;;1.75;1.00;;;;;;;3.25;100.00;95438.72;1024141;28;20027;-73
2020/12/25 01:00:14;;;;;;;1.30;1.00;;;;;;;3.21;100.00;95432.94;1024020;28;20043;-73
2020/12/25 01:00:45;;;;;;;1.60;1.00;;;;;;;3.25;100.00;95438.72;1020418;29;20093;-74
2020/12/25 01:01:15;;;;;;;2.40;1.33;;;;;;;3.24;100.00;95446.72;1020412;29;20114;-73
2020/12/25 01:01:50;;;;;;;1.90;1.05;;;;;;;3.27;100.00;95441.22;1020287;29;20028;-73
2020/12/25 01:02:23;;;;;;;1.50;1.20;;;;;;;3.26;100.00;95442.16;1015994;29;20107;-73
2020/12/25 01:02:54;;;;;;;1.70;1.05;;;;;;;3.25;100.00;95437.91;1019894;29;20019;-73
2020/12/25 01:03:24;;;;;;;1.75;1.15;;;;;;;3.23;100.00;95435.41;1020167;29;20035;-73
2020/12/25 01:03:55;;;;;;;1.40;1.00;;;;;;;3.24;100.00;95444.09;1020317;29;20027;-73
2020/12/25 01:04:26;;;;;;;2.03;1.27;;;;;;;3.18;100.00;95435.03;1032118;28;20033;-73
2020/12/25 01:04:57;;;;;;;1.98;1.30;;;;;;;3.24;100.00;95437.09;1028145;28;20014;-74
2020/12/25 01:05:28;;;;;;;2.33;1.40;;;;;;;3.21;100.00;95432.13;1020335;29;20090;-74
2020/12/25 01:05:59;;;;;;;1.70;1.20;;;;;;;3.18;100.00;95427.97;1024082;29;20058;-73
2020/12/25 01:06:29;;;;;;;2.40;1.30;;;;;;;3.27;100.00;95438.59;1020196;29;20530;-73
2020/12/25 01:07:05;;;;;;;2.47;1.30;;;;;;;3.24;100.00;95441.47;1028152;28;20054;-73
2020/12/25 01:07:36;;;;;;;2.35;1.38;;;;;;;3.24;100.00;95444.97;1032125;28;20022;-73
2020/12/25 01:08:07;;;;;;;1.70;1.13;;;;;;;3.26;100.00;95439.53;1028037;28;20029;-73
2020/12/25 01:08:38;;;;;;;1.90;1.23;;;;;;;3.27;100.00;95446.47;1020069;29;20031;-73
2020/12/25 01:09:08;;;;;;;2.17;1.50;;;;;;;3.29;100.00;95444.50;1024164;29;20027;-73
2020/12/25 01:09:39;;;;;;;2.10;1.50;;;;;;;3.23;100.00;95437.22;1024179;29;20031;-74
2020/12/25 01:10:10;;;;;;;1.88;1.48;;;;;;;3.26;100.00;95450.03;1024121;29;20027;-73
2020/12/25 01:10:41;;;;;;;2.20;1.60;;;;;;;3.20;100.00;95440.94;1019959;29;20083;-74
2020/12/25 01:11:12;;;;;;;2.63;1.65;;;;;;;3.24;100.00;95442.34;1024083;29;20377;-74
2020/12/25 01:11:43;;;;;;;2.63;1.55;;;;;;;3.29;100.00;95445.34;1024245;29;20139;-73
2020/12/25 01:12:14;;;;;;;2.15;1.50;;;;;;;3.22;100.00;95439.00;1023958;29;20023;-73
2020/12/25 01:12:44;;;;;;;2.50;1.60;;;;;;;3.31;100.00;95451.28;1027867;28;20025;-73
2020/12/25 01:13:15;;;;;;;2.22;1.60;;;;;;;3.33;100.00;95448.53;1032213;28;20061;-73
2020/12/25 01:13:46;;;;;;;2.40;1.60;;;;;;;3.33;100.00;95457.22;1032425;28;20101;-73
2020/12/25 01:14:17;;;;;;;1.92;1.50;;;;;;;3.27;100.00;95451.69;1024052;29;20022;-73
2020/12/25 01:14:48;;;;;;;2.50;1.77;;;;;;;3.30;100.00;95454.03;1023966;28;20035;-73
2020/12/25 01:15:19;;;;;;;2.13;1.60;;;;;;;3.29;100.00;95457.63;1024249;29;20020;-73
2020/12/25 01:15:50;;;;;;;2.65;1.70;;;;;;;3.28;100.00;95453.38;1028090;28;20360;-73
2020/12/25 01:16:21;;;;;;;2.60;1.60;;;;;;;3.21;100.00;95453.09;1028024;28;20015;-74
2020/12/25 01:16:53;;;;;;;2.35;1.58;;;;;;;3.28;100.00;95458.63;1027975;28;20023;-73
2020/12/25 01:17:24;;;;;;;2.35;1.88;;;;;;;3.30;100.00;95465.34;1020268;29;20020;-73
2020/12/25 01:17:55;;;;;;;2.83;1.80;;;;;;;3.24;100.00;95455.44;1028095;28;20023;-74
2020/12/25 01:18:26;;;;;;;5.20;2.00;;;;;;;3.20;100.00;95443.56;1024322;29;20050;-74
2020/12/25 01:18:57;;;;;;;2.60;1.70;;;;;;;3.25;100.00;95458.91;1024000;29;20411;-73
2020/12/25 01:19:28;;;;;;;3.17;1.90;;;;;;;3.26;100.00;95460.53;1028157;28;20430;-73
2020/12/25 01:19:59;;;;;;;2.63;1.67;;;;;;;3.24;100.00;95459.84;1028277;28;20018;-74
2020/12/25 01:20:29;;;;;;;2.90;2.03;;;;;;;3.26;100.00;95455.28;1027893;28;20545;-73
2020/12/25 01:21:01;;;;;;;3.00;2.03;;;;;;;3.29;100.00;95468.13;1019979;29;20122;-73
2020/12/25 01:21:31;;;;;;;3.08;2.28;;;;;;;3.29;100.00;95465.50;1020425;29;20024;-74
2020/12/25 01:22:02;;;;;;;2.88;2.08;;;;;;;3.10;100.00;95432.28;1024055;29;20019;-73
2020/12/25 01:22:33;;;;;;;2.83;1.88;;;;;;;3.28;100.00;95464.69;1024020;29;20391;-73
2020/12/25 01:23:04;;;;;;;3.50;2.05;;;;;;;3.28;100.00;95463.88;1019936;29;20023;-73
2020/12/25 01:23:34;;;;;;;3.40;2.22;;;;;;;3.29;100.00;95466.34;1016218;29;20032;-73
2020/12/25 01:24:05;;;;;;;4.65;2.30;;;;;;;3.31;100.00;95463.56;1020168;29;20015;-73
2020/12/25 01:24:36;;;;;;;3.03;2.20;;;;;;;3.32;100.00;95470.47;1020211;29;20035;-73
2020/12/25 01:25:08;;;;;;;3.60;2.67;;;;;;;3.27;100.00;95454.31;1016105;29;20048;-73
2020/12/25 01:25:39;;;;;;;3.63;2.10;;;;;;;3.28;100.00;95467.31;1024197;29;20062;-73
2020/12/25 01:26:10;;;;;;;3.30;2.40;;;;;;;3.29;100.00;95461.09;1020124;29;20027;-73
2020/12/25 01:26:40;;;;;;;3.40;2.30;;;;;;;3.31;100.00;95467.03;1024093;29;20019;-73
2020/12/25 01:27:11;;;;;;;2.85;2.22;;;;;;;3.29;100.00;95457.63;1027863;28;20450;-73
2020/12/25 01:27:42;;;;;;;3.85;2.70;;;;;;;3.32;100.00;95463.41;1020056;29;20028;-73
2020/12/25 01:28:13;;;;;;;2.95;2.00;;;;;;;3.33;100.00;95462.47;1032159;28;20018;-74
2020/12/25 01:28:44;;;;;;;4.65;3.00;;;;;;;3.34;100.00;95473.78;1024099;29;20031;-74
2020/12/25 01:29:15;;;;;;;3.08;2.10;;;;;;;3.35;100.00;95468.38;1031963;28;20029;-73
2020/12/25 01:29:45;;;;;;;3.40;2.30;;;;;;;3.33;100.00;95466.88;1031992;28;20022;-74
2020/12/25 01:30:16;;;;;;;4.18;2.60;;;;;;;3.26;100.00;95456.13;1024015;29;20027;-74
2020/12/25 01:30:47;;;;;;;3.85;2.78;;;;;;;3.30;100.00;95464.53;1024072;29;20023;-74
2020/12/25 01:31:18;;;;;;;3.35;2.50;;;;;;;3.30;100.00;95475.84;1027893;28;20037;-73
2020/12/25 01:31:49;;;;;;;4.47;2.60;;;;;;;3.32;100.00;95467.84;1024007;29;20056;-74
2020/12/25 01:32:20;;;;;;;3.97;2.70;;;;;;;3.30;100.00;95467.16;1024019;29;20023;-74
2020/12/25 01:32:51;;;;;;;3.80;2.78;;;;;;;3.32;100.00;95473.09;1027952;28;20141;-73
2020/12/25 01:33:21;;;;;;;3.55;2.50;;;;;;;3.31;100.00;95463.56;1023903;29;20117;-74
2020/12/25 01:33:52;;;;;;;4.10;2.83;;;;;;;3.30;100.00;95472.41;1027993;28;20109;-74
2020/12/25 01:34:23;;;;;;;6.05;2.90;;;;;;;3.28;100.00;95475.19;1028052;28;20027;-74
2020/12/25 01:34:56;;;;;;;3.85;2.50;;;;;;;3.27;100.00;95472.69;1024048;29;20369;-74
2020/12/25 01:35:27;;;;;;;3.80;2.72;;;;;;;3.30;100.00;95472.41;1016033;29;20091;-74
2020/12/25 01:35:58;;;;;;;3.75;2.67;;;;;;;3.29;100.00;95466.34;1020071;29;20460;-74
2020/12/25 01:36:29;;;;;;;3.55;2.65;;;;;;;3.30;100.00;95475.03;1016151;29;20032;-74
2020/12/25 01:37:01;;;;;;;4.78;2.53;;;;;;;3.28;100.00;95475.19;1020078;29;20034;-74
2020/12/25 01:37:32;;;;;;;4.43;2.83;;;;;;;3.31;100.00;95476.69;1023869;29;20023;-73
2020/12/25 01:38:03;;;;;;;4.93;3.03;;;;;;;3.29;100.00;95481.25;1027891;28;20471;-74
2020/12/25 01:38:33;;;;;;;3.85;2.40;;;;;;;3.32;100.00;95486.22;1024023;29;20042;-74
2020/12/25 01:39:04;;;;;;;3.42;2.30;;;;;;;3.29;100.00;95482.09;1020057;29;20046;-74
2020/12/25 01:39:35;;;;;;;5.45;2.38;;;;;;;3.16;100.00;95471.06;1019964;29;20034;-73
2020/12/25 01:40:06;;;;;;;4.25;2.55;;;;;;;3.26;100.00;95481.53;1027973;28;20037;-73
2020/12/25 01:40:37;;;;;;;4.22;2.92;;;;;;;3.25;100.00;95479.88;1036075;28;20461;-74
2020/12/25 01:41:07;;;;;;;3.70;2.40;;;;;;;3.24;100.00;95488.72;1024080;28;20074;-74
2020/12/25 01:41:38;;;;;;;3.30;2.45;;;;;;;3.24;100.00;95493.97;1027784;28;20076;-73
2020/12/25 01:42:09;;;;;;;4.22;2.88;;;;;;;3.23;100.00;95481.84;1027759;28;20110;-73
2020/12/25 01:42:40;;;;;;;4.32;3.13;;;;;;;3.24;100.00;95493.97;1028049;28;20098;-73
2020/12/25 01:43:11;;;;;;;3.50;2.42;;;;;;;3.23;100.00;95492.31;1019958;29;20071;-74
2020/12/25 01:43:42;;;;;;;3.60;2.33;;;;;;;3.18;100.00;95490.94;1019942;29;20028;-73
2020/12/25 01:44:13;;;;;;;3.47;2.45;;;;;;;3.10;100.00;95482.97;1027946;28;20059;-73
2020/12/25 01:44:43;;;;;;;3.20;2.15;;;;;;;3.12;100.00;95501.19;1023940;29;20019;-74
2020/12/25 01:45:14;;;;;;;2.28;1.77;;;;;;;3.02;100.00;95502.00;1023942;29;20529;-73
2020/12/25 01:45:45;;;;;;;2.90;2.05;;;;;;;2.99;100.00;95496.22;1027858;28;20422;-73
2020/12/25 01:46:17;;;;;;;3.95;2.10;;;;;;;3.01;100.00;95500.38;1027863;28;20360;-74
2020/12/25 01:46:48;;;;;;;2.65;2.10;;;;;;;3.01;100.00;95512.66;1027960;28;20018;-73
2020/12/25 01:47:18;;;;;;;2.50;1.88;;;;;;;2.96;100.00;95499.13;1027926;28;20026;-73
2020/12/25 01:47:50;;;;;;;2.90;2.00;;;;;;;2.92;100.00;95497.75;1024649;29;20043;-75
2020/12/25 01:48:21;;;;;;;2.58;1.90;;;;;;;2.97;100.00;95504.22;1032438;28;20023;-75
2020/12/25 01:48:52;;;;;;;2.70;1.83;;;;;;;2.93;100.00;95505.50;1024289;29;20460;-75
2020/12/25 01:49:23;;;;;;;2.72;2.00;;;;;;;2.87;100.00;95497.34;1023958;29;20085;-75
2020/12/25 01:49:57;;;;;;;3.40;2.00;;;;;;;2.88;100.00;95506.88;1019891;29;20022;-73
2020/12/25 01:50:28;;;;;;;2.72;1.98;;;;;;;2.81;100.00;95510.03;1019993;29;20062;-72
2020/12/25 01:50:59;;;;;;;2.78;1.95;;;;;;;2.81;100.00;95520.53;1023981;29;20153;-75
2020/12/25 01:51:30;;;;;;;2.45;1.65;;;;;;;2.79;100.00;95504.13;1023874;29;20482;-75
2020/12/25 01:52:01;;;;;;;2.80;2.05;;;;;;;2.77;100.00;95516.53;1027756;28;20066;-72
2020/12/25 01:52:31;;;;;;;3.03;1.98;;;;;;;2.80;100.00;95518.06;1027708;28;20597;-72
2020/12/25 01:53:03;;;;;;;3.83;1.98;;;;;;;2.78;100.00;95519.97;1027867;28;20572;-75
2020/12/25 01:53:34;;;;;;;2.50;1.75;;;;;;;2.73;100.00;95532.69;1028012;28;20019;-75
2020/12/25 01:54:05;;;;;;;2.00;1.40;;;;;;;2.68;100.00;95524.41;1027838;28;20062;-75
2020/12/25 01:54:35;;;;;;;1.65;1.33;;;;;;;2.64;100.00;95518.59;1023856;29;20166;-75
2020/12/25 01:55:07;;;;;;;2.47;1.60;;;;;;;2.55;100.00;95520.25;1028104;28;20428;-73
2020/12/25 01:55:38;;;;;;;2.13;1.45;;;;;;;2.58;100.00;95537.53;1027853;28;20150;-75
2020/12/25 01:56:09;;;;;;;2.28;1.70;;;;;;;2.51;100.00;95513.66;1027768;28;20495;-75
2020/12/25 01:56:40;;;;;;;2.08;1.33;;;;;;;2.39;100.00;95525.22;1023883;29;20027;-73
2020/12/25 01:57:11;;;;;;;2.05;1.30;;;;;;;2.45;100.00;95528.09;1016108;29;20024;-73
2020/12/25 01:57:42;;;;;;;1.83;1.30;;;;;;;2.43;100.00;95535.28;1020081;29;20036;-74
2020/12/25 01:58:13;;;;;;;2.15;1.52;;;;;;;2.42;100.00;95533.63;1019808;29;20106;-72
2020/12/25 01:58:44;;;;;;;1.75;1.27;;;;;;;2.39;100.00;95539.16;1023689;28;20027;-72
2020/12/25 01:59:15;;;;;;;1.80;1.25;;;;;;;2.40;100.00;95538.19;1027916;28;20086;-73
2020/12/25 01:59:46;;;;;;;1.88;1.48;;;;;;;2.39;100.00;95539.16;1023868;29;20484;-73
2020/12/25 02:00:17;;;;;;;3.55;1.70;;;;;;;2.39;100.00;95544.38;1023929;29;20053;-73
2020/12/25 02:00:48;;;;;;;2.40;1.55;;;;;;;2.33;100.00;95533.63;1023852;29;20093;-73
2020/12/25 02:01:19;;;;;;;2.47;1.48;;;;;;;2.36;100.00;95547.28;1019901;29;20377;-73
2020/12/25 02:01:50;;;;;;;1.85;1.20;;;;;;;2.36;100.00;95556.94;1027962;28;20046;-73
2020/12/25 02:02:21;;;;;;;2.67;1.08;;;;;;;2.17;100.00;95552.47;1027589;28;20023;-72
2020/12/25 02:02:52;;;;;;;1.05;0.90;;;;;;;2.22;100.00;95550.28;1023472;29;20023;-72
2020/12/25 02:03:22;;;;;;;0.63;0.60;;;;;;;2.09;100.00;95547.91;1024967;28;20027;-74
2020/12/25 02:03:53;;;;;;;2.92;0.80;;;;;;;1.97;100.00;95551.56;1023897;29;20047;-73
2020/12/25 02:04:24;;;;;;;1.10;0.75;;;;;;;2.02;100.00;95560.72;1023816;29;20015;-72
2020/12/25 02:04:56;;;;;;;0.98;0.80;;;;;;;1.99;100.00;95568.81;1023750;29;20026;-72
2020/12/25 02:05:27;;;;;;;1.45;1.00;;;;;;;2.00;100.00;95564.41;1016018;29;20036;-75
2020/12/25 02:05:58;;;;;;;1.02;0.77;;;;;;;1.99;100.00;95566.22;1023881;29;20071;-76
2020/12/25 02:06:38;;;;;;;1.45;0.90;;;;;;;1.96;100.00;95566.47;1023866;28;20558;-75
2020/12/25 02:07:09;;;;;;;0.93;0.70;;;;;;;1.86;100.00;95565.59;1027857;28;20109;-73
2020/12/25 02:07:39;;;;;;;1.08;0.80;;;;;;;1.79;100.00;95564.47;1027841;28;20015;-75
2020/12/25 02:08:11;;;;;;;1.27;0.70;;;;;;;1.83;100.00;95571.09;1023904;29;20053;-75
2020/12/25 02:08:42;;;;;;;2.67;0.68;;;;;;;1.79;100.00;95565.28;1027727;28;20019;-72
2020/12/25 02:09:13;;;;;;;1.60;1.10;;;;;;;1.83;100.00;95571.94;1027772;28;20158;-72
2020/12/25 02:09:44;;;;;;;1.52;0.95;;;;;;;1.78;100.00;95568.88;1031863;28;20022;-73
2020/12/25 02:10:14;;;;;;;0.95;0.70;;;;;;;1.78;100.00;95584.59;1027880;28;20019;-73
2020/12/25 02:10:45;;;;;;;1.80;0.90;;;;;;;1.78;100.00;95571.50;1019779;29;20342;-73
2020/12/25 02:11:16;;;;;;;0.80;0.80;;;;;;;1.74;100.00;95567.47;1020033;29;20129;-73
2020/12/25 02:11:47;;;;;;;1.00;0.70;;;;;;;1.68;100.00;95566.22;1027877;28;20025;-76
2020/12/25 02:12:18;;;;;;;1.58;1.00;;;;;;;1.74;100.00;95577.94;1020195;29;20027;-73
2020/12/25 02:12:48;;;;;;;1.70;1.10;;;;;;;1.75;100.00;95577.00;1019764;29;20012;-72
2020/12/25 02:13:19;;;;;;;1.27;0.90;;;;;;;1.73;100.00;95576.31;1023829;29;20039;-72
2020/12/25 02:13:50;;;;;;;1.00;0.80;;;;;;;1.73;100.00;95586.78;1023904;29;20023;-72
2020/12/25 02:14:21;;;;;;;1.35;0.88;;;;;;;1.67;100.00;95567.19;1023903;29;20146;-74
2020/12/25 02:14:52;;;;;;;1.63;1.10;;;;;;;1.77;100.00;95582.09;1027791;28;20019;-75
2020/12/25 02:15:23;;;;;;;2.03;1.20;;;;;;;1.73;100.00;95593.81;1015892;29;20020;-72
2020/12/25 02:15:53;;;;;;;1.40;1.00;;;;;;;1.69;100.00;95591.44;1027720;28;20101;-73
2020/12/25 02:16:24;;;;;;;1.75;0.90;;;;;;;1.69;100.00;95590.63;1027940;28;20030;-74
2020/12/25 02:16:55;;;;;;;1.30;0.90;;;;;;;1.57;100.00;95582.00;1019847;29;20484;-75
2020/12/25 02:17:26;;;;;;;1.48;1.00;;;;;;;1.63;100.00;95586.72;1023765;29;20098;-72
2020/12/25 02:17:56;;;;;;;1.35;1.00;;;;;;;1.65;100.00;95589.19;1023733;29;20498;-72
2020/12/25 02:18:37;;;;;;;2.00;1.10;;;;;;;1.64;100.00;95583.16;1031854;28;20037;-73
2020/12/25 02:19:08;;;;;;;1.85;1.10;;;;;;;1.58;100.00;95588.88;1023786;28;20110;-72
2020/12/25 02:19:39;;;;;;;1.55;0.98;;;;;;;1.58;100.00;95588.88;1019908;29;20058;-73
2020/12/25 02:20:10;;;;;;;2.88;1.23;;;;;;;1.57;100.00;95582.00;1027808;28;20019;-73
2020/12/25 02:20:41;;;;;;;1.83;1.20;;;;;;;1.56;100.00;95585.56;1023788;29;20027;-75
2020/12/25 02:21:11;;;;;;;2.38;1.40;;;;;;;1.60;100.00;95594.00;1023743;29;20361;-75
2020/12/25 02:21:42;;;;;;;2.05;1.25;;;;;;;1.59;100.00;95590.56;1023760;29;20019;-73
2020/12/25 02:22:13;;;;;;;2.28;1.38;;;;;;;1.58;100.00;95599.34;1027744;28;20407;-72
2020/12/25 02:22:44;;;;;;;1.67;1.33;;;;;;;1.56;100.00;95588.19;1027704;28;20081;-72
2020/12/25 02:23:16;;;;;;;2.20;1.30;;;;;;;1.57;100.00;95595.09;1023720;29;20078;-72
2020/12/25 02:23:47;;;;;;;2.50;1.52;;;;;;;1.57;100.00;95592.47;1019782;29;20027;-72
2020/12/25 02:24:18;;;;;;;2.45;1.50;;;;;;;1.60;100.00;95597.47;1020141;29;20420;-73
2020/12/25 02:24:48;;;;;;;2.30;1.40;;;;;;;1.57;100.00;95602.09;1027765;28;20109;-73
2020/12/25 02:25:20;;;;;;;2.20;1.30;;;;;;;1.55;100.00;95599.63;1019782;29;20031;-75
2020/12/25 02:25:50;;;;;;;2.53;1.33;;;;;;;1.53;100.00;95604.13;1023684;29;20019;-72
2020/12/25 02:26:21;;;;;;;1.67;1.10;;;;;;;1.50;100.00;95599.19;1023861;29;20463;-73
2020/12/25 02:26:52;;;;;;;2.30;1.50;;;;;;;1.50;100.00;95601.81;1023767;29;20019;-75